sensor_id;sensor_type;location;lat;lon;timestamp;P1;durP1;ratioP1;P2;durP2;ratioP2
16973;SDS011;8603;46.944;7.412;2022-10-17T00:00:28;2.30;;;2.10;;
16973;SDS011;8603;46.944;7.412;2022-10-17T00:02:54;2.20;;;2.00;;
16973;SDS011;8603;46.944;7.412;2022-10-17T00:05:20;2.10;;;1.90;;
16973;SDS011;8603;46.944;7.412;2022-10-17T00:07:46;2.83;;;2.30;;
16973;SDS011;8603;46.944;7.412;2022-10-17T00:10:12;2.37;;;2.17;;
16973;SDS011;8603;46.944;7.412;2022-10-17T00:12:37;2.67;;;2.23;;
16973;SDS011;8603;46.944;7.412;2022-10-17T00:15:04;4.73;;;2.37;;
16973;SDS011;8603;46.944;7.412;2022-10-17T00:17:30;2.60;;;2.30;;
16973;SDS011;8603;46.944;7.412;2022-10-17T00:19:57;3.80;;;2.47;;
16973;SDS011;8603;46.944;7.412;2022-10-17T00:22:23;4.30;;;2.40;;
16973;SDS011;8603;46.944;7.412;2022-10-17T00:24:49;2.73;;;2.27;;
16973;SDS011;8603;46.944;7.412;2022-10-17T00:27:15;5.73;;;2.10;;
16973;SDS011;8603;46.944;7.412;2022-10-17T00:29:40;2.20;;;2.00;;
16973;SDS011;8603;46.944;7.412;2022-10-17T00:32:06;2.20;;;2.00;;
16973;SDS011;8603;46.944;7.412;2022-10-17T00:34:31;2.13;;;1.93;;
16973;SDS011;8603;46.944;7.412;2022-10-17T00:37:00;2.60;;;2.40;;
16973;SDS011;8603;46.944;7.412;2022-10-17T00:39:25;3.50;;;2.33;;
16973;SDS011;8603;46.944;7.412;2022-10-17T00:41:51;3.93;;;2.30;;
16973;SDS011;8603;46.944;7.412;2022-10-17T00:46:58;5.17;;;2.67;;
16973;SDS011;8603;46.944;7.412;2022-10-17T00:49:31;2.90;;;2.53;;
16973;SDS011;8603;46.944;7.412;2022-10-17T00:52:00;4.50;;;2.53;;
16973;SDS011;8603;46.944;7.412;2022-10-17T00:54:36;4.07;;;2.30;;
16973;SDS011;8603;46.944;7.412;2022-10-17T00:57:07;2.40;;;2.20;;
16973;SDS011;8603;46.944;7.412;2022-10-17T00:59:33;5.43;;;2.57;;
16973;SDS011;8603;46.944;7.412;2022-10-17T01:02:01;3.10;;;2.37;;
16973;SDS011;8603;46.944;7.412;2022-10-17T01:04:29;5.07;;;2.70;;
16973;SDS011;8603;46.944;7.412;2022-10-17T01:06:55;2.40;;;2.20;;
16973;SDS011;8603;46.944;7.412;2022-10-17T01:09:21;2.73;;;2.20;;
16973;SDS011;8603;46.944;7.412;2022-10-17T01:11:55;2.43;;;2.23;;
16973;SDS011;8603;46.944;7.412;2022-10-17T01:17:07;2.73;;;2.53;;
16973;SDS011;8603;46.944;7.412;2022-10-17T01:22:50;7.33;;;2.67;;
16973;SDS011;8603;46.944;7.412;2022-10-17T01:25:53;3.57;;;2.23;;
16973;SDS011;8603;46.944;7.412;2022-10-17T01:28:25;4.17;;;2.47;;
16973;SDS011;8603;46.944;7.412;2022-10-17T01:31:08;2.80;;;2.43;;
16973;SDS011;8603;46.944;7.412;2022-10-17T01:33:41;3.07;;;2.50;;
16973;SDS011;8603;46.944;7.412;2022-10-17T01:39:16;2.80;;;2.33;;
16973;SDS011;8603;46.944;7.412;2022-10-17T01:41:50;3.43;;;2.47;;
16973;SDS011;8603;46.944;7.412;2022-10-17T01:47:20;2.97;;;2.53;;
16973;SDS011;8603;46.944;7.412;2022-10-17T01:49:49;5.90;;;2.93;;
16973;SDS011;8603;46.944;7.412;2022-10-17T01:52:18;2.83;;;2.40;;
16973;SDS011;8603;46.944;7.412;2022-10-17T01:54:56;5.37;;;2.90;;
16973;SDS011;8603;46.944;7.412;2022-10-17T01:59:58;2.70;;;2.50;;
16973;SDS011;8603;46.944;7.412;2022-10-17T02:02:26;3.67;;;2.60;;
16973;SDS011;8603;46.944;7.412;2022-10-17T02:04:52;3.57;;;2.53;;
16973;SDS011;8603;46.944;7.412;2022-10-17T02:07:20;2.90;;;2.57;;
16973;SDS011;8603;46.944;7.412;2022-10-17T02:09:46;4.73;;;2.70;;
16973;SDS011;8603;46.944;7.412;2022-10-17T02:17:28;2.40;;;2.20;;
16973;SDS011;8603;46.944;7.412;2022-10-17T02:25:46;2.57;;;2.10;;
16973;SDS011;8603;46.944;7.412;2022-10-17T02:28:29;2.63;;;2.40;;
16973;SDS011;8603;46.944;7.412;2022-10-17T02:31:23;3.23;;;2.70;;
16973;SDS011;8603;46.944;7.412;2022-10-17T02:34:03;2.40;;;2.20;;
16973;SDS011;8603;46.944;7.412;2022-10-17T02:36:34;2.47;;;2.27;;
16973;SDS011;8603;46.944;7.412;2022-10-17T02:39:04;3.03;;;2.43;;
16973;SDS011;8603;46.944;7.412;2022-10-17T02:41:31;6.40;;;2.40;;
16973;SDS011;8603;46.944;7.412;2022-10-17T02:43:59;3.30;;;3.00;;
16973;SDS011;8603;46.944;7.412;2022-10-17T02:46:27;2.50;;;2.30;;
16973;SDS011;8603;46.944;7.412;2022-10-17T02:48:56;2.83;;;2.23;;
16973;SDS011;8603;46.944;7.412;2022-10-17T02:51:51;2.50;;;2.30;;
16973;SDS011;8603;46.944;7.412;2022-10-17T02:57:07;3.27;;;2.53;;
16973;SDS011;8603;46.944;7.412;2022-10-17T02:59:34;10.30;;;2.93;;
16973;SDS011;8603;46.944;7.412;2022-10-17T03:02:01;2.60;;;2.30;;
16973;SDS011;8603;46.944;7.412;2022-10-17T03:04:31;3.30;;;2.10;;
16973;SDS011;8603;46.944;7.412;2022-10-17T03:06:58;3.33;;;2.43;;
16973;SDS011;8603;46.944;7.412;2022-10-17T03:09:24;2.97;;;2.63;;
16973;SDS011;8603;46.944;7.412;2022-10-17T03:11:49;3.30;;;2.73;;
16973;SDS011;8603;46.944;7.412;2022-10-17T03:14:15;4.70;;;2.50;;
16973;SDS011;8603;46.944;7.412;2022-10-17T03:16:41;2.73;;;2.43;;
16973;SDS011;8603;46.944;7.412;2022-10-17T03:19:07;3.83;;;2.23;;
16973;SDS011;8603;46.944;7.412;2022-10-17T03:21:32;5.00;;;2.70;;
16973;SDS011;8603;46.944;7.412;2022-10-17T03:24:00;3.00;;;2.50;;
16973;SDS011;8603;46.944;7.412;2022-10-17T03:26:26;2.60;;;2.40;;
16973;SDS011;8603;46.944;7.412;2022-10-17T03:28:53;3.40;;;2.40;;
16973;SDS011;8603;46.944;7.412;2022-10-17T03:31:19;2.10;;;1.97;;
16973;SDS011;8603;46.944;7.412;2022-10-17T03:33:44;3.30;;;2.23;;
16973;SDS011;8603;46.944;7.412;2022-10-17T03:36:12;2.83;;;2.30;;
16973;SDS011;8603;46.944;7.412;2022-10-17T03:38:39;2.03;;;1.90;;
16973;SDS011;8603;46.944;7.412;2022-10-17T03:41:05;6.93;;;2.90;;
16973;SDS011;8603;46.944;7.412;2022-10-17T03:43:31;2.30;;;2.10;;
16973;SDS011;8603;46.944;7.412;2022-10-17T03:45:57;3.53;;;2.40;;
16973;SDS011;8603;46.944;7.412;2022-10-17T03:48:24;4.03;;;2.40;;
16973;SDS011;8603;46.944;7.412;2022-10-17T03:50:50;5.50;;;2.60;;
16973;SDS011;8603;46.944;7.412;2022-10-17T03:53:22;2.90;;;2.37;;
16973;SDS011;8603;46.944;7.412;2022-10-17T03:55:47;4.88;;;3.15;;
16973;SDS011;8603;46.944;7.412;2022-10-17T03:58:13;3.03;;;2.60;;
16973;SDS011;8603;46.944;7.412;2022-10-17T04:00:38;2.80;;;2.50;;
16973;SDS011;8603;46.944;7.412;2022-10-17T04:03:04;4.63;;;2.40;;
16973;SDS011;8603;46.944;7.412;2022-10-17T04:05:30;4.70;;;2.70;;
16973;SDS011;8603;46.944;7.412;2022-10-17T04:07:55;3.53;;;2.23;;
16973;SDS011;8603;46.944;7.412;2022-10-17T04:10:21;4.00;;;2.80;;
16973;SDS011;8603;46.944;7.412;2022-10-17T04:12:46;3.83;;;2.53;;
16973;SDS011;8603;46.944;7.412;2022-10-17T04:15:13;2.80;;;2.57;;
16973;SDS011;8603;46.944;7.412;2022-10-17T04:17:39;2.53;;;2.33;;
16973;SDS011;8603;46.944;7.412;2022-10-17T04:20:04;5.43;;;2.90;;
16973;SDS011;8603;46.944;7.412;2022-10-17T04:22:31;3.03;;;2.53;;
16973;SDS011;8603;46.944;7.412;2022-10-17T04:24:56;4.20;;;2.70;;
16973;SDS011;8603;46.944;7.412;2022-10-17T04:27:22;7.20;;;2.77;;
16973;SDS011;8603;46.944;7.412;2022-10-17T04:29:47;4.63;;;2.80;;
16973;SDS011;8603;46.944;7.412;2022-10-17T04:32:13;5.13;;;2.80;;
16973;SDS011;8603;46.944;7.412;2022-10-17T04:34:39;2.93;;;2.40;;
16973;SDS011;8603;46.944;7.412;2022-10-17T04:37:04;3.97;;;2.80;;
16973;SDS011;8603;46.944;7.412;2022-10-17T04:39:30;4.00;;;2.40;;
16973;SDS011;8603;46.944;7.412;2022-10-17T04:41:55;4.87;;;2.60;;
16973;SDS011;8603;46.944;7.412;2022-10-17T04:44:21;4.33;;;2.50;;
16973;SDS011;8603;46.944;7.412;2022-10-17T04:46:47;3.67;;;2.30;;
16973;SDS011;8603;46.944;7.412;2022-10-17T04:49:13;5.40;;;2.40;;
16973;SDS011;8603;46.944;7.412;2022-10-17T04:51:39;4.27;;;2.73;;
16973;SDS011;8603;46.944;7.412;2022-10-17T04:54:04;3.57;;;2.33;;
16973;SDS011;8603;46.944;7.412;2022-10-17T04:56:42;3.57;;;2.57;;
16973;SDS011;8603;46.944;7.412;2022-10-17T04:59:20;2.90;;;2.50;;
16973;SDS011;8603;46.944;7.412;2022-10-17T05:02:26;2.57;;;2.37;;
16973;SDS011;8603;46.944;7.412;2022-10-17T05:08:29;2.90;;;2.60;;
16973;SDS011;8603;46.944;7.412;2022-10-17T05:11:14;3.40;;;2.17;;
16973;SDS011;8603;46.944;7.412;2022-10-17T05:13:42;2.80;;;2.60;;
16973;SDS011;8603;46.944;7.412;2022-10-17T05:16:07;4.03;;;2.40;;
16973;SDS011;8603;46.944;7.412;2022-10-17T05:38:58;5.20;;;2.67;;
16973;SDS011;8603;46.944;7.412;2022-10-17T05:41:52;3.23;;;2.63;;
16973;SDS011;8603;46.944;7.412;2022-10-17T05:44:18;2.87;;;2.50;;
16973;SDS011;8603;46.944;7.412;2022-10-17T05:46:43;3.07;;;2.47;;
16973;SDS011;8603;46.944;7.412;2022-10-17T05:49:09;2.50;;;2.13;;
16973;SDS011;8603;46.944;7.412;2022-10-17T05:51:35;3.37;;;2.43;;
16973;SDS011;8603;46.944;7.412;2022-10-17T05:54:06;3.40;;;2.60;;
16973;SDS011;8603;46.944;7.412;2022-10-17T05:56:50;6.13;;;2.37;;
16973;SDS011;8603;46.944;7.412;2022-10-17T05:59:23;5.50;;;2.93;;
16973;SDS011;8603;46.944;7.412;2022-10-17T06:02:11;3.63;;;2.70;;
16973;SDS011;8603;46.944;7.412;2022-10-17T06:04:55;3.10;;;2.77;;
16973;SDS011;8603;46.944;7.412;2022-10-17T06:07:39;4.77;;;2.80;;
16973;SDS011;8603;46.944;7.412;2022-10-17T06:10:13;4.53;;;3.30;;
16973;SDS011;8603;46.944;7.412;2022-10-17T06:12:45;2.63;;;2.43;;
16973;SDS011;8603;46.944;7.412;2022-10-17T08:16:10;2.25;;;1.70;;
16973;SDS011;8603;46.944;7.412;2022-10-17T08:19:52;2.35;;;1.67;;
16973;SDS011;8603;46.944;7.412;2022-10-17T08:28:32;4.85;;;1.50;;
16973;SDS011;8603;46.944;7.412;2022-10-17T08:31:07;3.75;;;1.50;;
16973;SDS011;8603;46.944;7.412;2022-10-17T08:33:52;6.70;;;2.33;;
16973;SDS011;8603;46.944;7.412;2022-10-17T08:36:44;3.90;;;1.60;;
16973;SDS011;8603;46.944;7.412;2022-10-17T08:39:17;3.97;;;1.92;;
16973;SDS011;8603;46.944;7.412;2022-10-17T08:43:24;2.90;;;1.50;;
16973;SDS011;8603;46.944;7.412;2022-10-17T08:54:45;4.35;;;1.90;;
16973;SDS011;8603;46.944;7.412;2022-10-17T08:57:53;3.72;;;1.70;;
16973;SDS011;8603;46.944;7.412;2022-10-17T09:24:29;2.92;;;1.58;;
16973;SDS011;8603;46.944;7.412;2022-10-17T10:11:59;1.50;;;1.40;;
16973;SDS011;8603;46.944;7.412;2022-10-17T10:25:18;2.60;;;1.73;;
16973;SDS011;8603;46.944;7.412;2022-10-17T10:27:43;3.75;;;1.95;;
16973;SDS011;8603;46.944;7.412;2022-10-17T10:30:18;2.17;;;1.75;;
16973;SDS011;8603;46.944;7.412;2022-10-17T10:32:46;5.60;;;1.85;;
16973;SDS011;8603;46.944;7.412;2022-10-17T10:35:30;3.38;;;2.00;;
16973;SDS011;8603;46.944;7.412;2022-10-17T10:37:58;4.00;;;2.13;;
16973;SDS011;8603;46.944;7.412;2022-10-17T10:40:32;2.47;;;1.85;;
16973;SDS011;8603;46.944;7.412;2022-10-17T10:43:02;4.63;;;1.90;;
16973;SDS011;8603;46.944;7.412;2022-10-17T10:48:17;4.75;;;2.22;;
16973;SDS011;8603;46.944;7.412;2022-10-17T10:50:52;4.95;;;2.22;;
16973;SDS011;8603;46.944;7.412;2022-10-17T10:53:43;2.17;;;1.98;;
16973;SDS011;8603;46.944;7.412;2022-10-17T10:56:19;4.72;;;2.22;;
16973;SDS011;8603;46.944;7.412;2022-10-17T11:01:33;3.83;;;2.33;;
16973;SDS011;8603;46.944;7.412;2022-10-17T11:04:16;1.90;;;1.80;;
16973;SDS011;8603;46.944;7.412;2022-10-17T11:06:48;3.78;;;2.28;;
16973;SDS011;8603;46.944;7.412;2022-10-17T11:09:22;5.20;;;2.20;;
16973;SDS011;8603;46.944;7.412;2022-10-17T11:11:57;3.60;;;2.47;;
16973;SDS011;8603;46.944;7.412;2022-10-17T11:14:54;5.57;;;2.95;;
16973;SDS011;8603;46.944;7.412;2022-10-17T11:20:37;2.65;;;2.45;;
16973;SDS011;8603;46.944;7.412;2022-10-17T11:23:16;3.80;;;2.30;;
16973;SDS011;8603;46.944;7.412;2022-10-17T11:26:02;5.53;;;2.30;;
16973;SDS011;8603;46.944;7.412;2022-10-17T11:28:32;3.08;;;2.40;;
16973;SDS011;8603;46.944;7.412;2022-10-17T11:31:08;2.60;;;2.40;;
16973;SDS011;8603;46.944;7.412;2022-10-17T11:33:49;4.05;;;2.33;;
16973;SDS011;8603;46.944;7.412;2022-10-17T11:36:17;2.67;;;2.22;;
16973;SDS011;8603;46.944;7.412;2022-10-17T11:38:47;3.22;;;2.40;;
16973;SDS011;8603;46.944;7.412;2022-10-17T11:46:56;5.18;;;2.58;;
16973;SDS011;8603;46.944;7.412;2022-10-17T11:49:31;3.20;;;2.40;;
16973;SDS011;8603;46.944;7.412;2022-10-17T11:54:47;4.35;;;2.58;;
16973;SDS011;8603;46.944;7.412;2022-10-17T12:08:24;2.75;;;2.17;;
16973;SDS011;8603;46.944;7.412;2022-10-17T12:10:59;4.65;;;2.38;;
16973;SDS011;8603;46.944;7.412;2022-10-17T12:18:47;2.65;;;2.42;;
16973;SDS011;8603;46.944;7.412;2022-10-17T12:32:31;4.13;;;2.55;;
16973;SDS011;8603;46.944;7.412;2022-10-17T12:34:57;3.33;;;2.78;;
16973;SDS011;8603;46.944;7.412;2022-10-17T12:43:00;4.30;;;2.60;;
16973;SDS011;8603;46.944;7.412;2022-10-17T12:45:54;4.65;;;2.40;;
16973;SDS011;8603;46.944;7.412;2022-10-17T12:51:08;4.70;;;2.75;;
16973;SDS011;8603;46.944;7.412;2022-10-17T12:56:20;4.10;;;2.65;;
16973;SDS011;8603;46.944;7.412;2022-10-17T12:58:54;8.32;;;2.80;;
16973;SDS011;8603;46.944;7.412;2022-10-17T13:01:32;3.13;;;2.45;;
16973;SDS011;8603;46.944;7.412;2022-10-17T13:04:00;3.42;;;2.67;;
16973;SDS011;8603;46.944;7.412;2022-10-17T13:06:30;2.83;;;2.63;;
16973;SDS011;8603;46.944;7.412;2022-10-17T13:09:07;2.50;;;2.28;;
16973;SDS011;8603;46.944;7.412;2022-10-17T13:11:41;4.20;;;2.50;;
16973;SDS011;8603;46.944;7.412;2022-10-17T13:14:11;2.72;;;2.40;;
16973;SDS011;8603;46.944;7.412;2022-10-17T13:16:39;2.60;;;2.20;;
16973;SDS011;8603;46.944;7.412;2022-10-17T13:19:16;3.67;;;2.65;;
16973;SDS011;8603;46.944;7.412;2022-10-17T13:22:09;3.58;;;2.58;;
16973;SDS011;8603;46.944;7.412;2022-10-17T13:24:38;2.38;;;2.17;;
16973;SDS011;8603;46.944;7.412;2022-10-17T13:27:05;2.78;;;2.58;;
16973;SDS011;8603;46.944;7.412;2022-10-17T13:29:46;3.42;;;2.63;;
16973;SDS011;8603;46.944;7.412;2022-10-17T13:32:12;5.00;;;2.45;;
16973;SDS011;8603;46.944;7.412;2022-10-17T13:34:37;2.50;;;2.30;;
16973;SDS011;8603;46.944;7.412;2022-10-17T13:37:04;3.42;;;2.60;;
16973;SDS011;8603;46.944;7.412;2022-10-17T13:39:49;3.67;;;2.50;;
16973;SDS011;8603;46.944;7.412;2022-10-17T13:42:28;3.45;;;2.22;;
16973;SDS011;8603;46.944;7.412;2022-10-17T13:44:55;2.65;;;2.45;;
16973;SDS011;8603;46.944;7.412;2022-10-17T13:47:23;3.13;;;2.22;;
16973;SDS011;8603;46.944;7.412;2022-10-17T13:49:51;3.38;;;2.42;;
16973;SDS011;8603;46.944;7.412;2022-10-17T13:52:18;2.92;;;2.40;;
16973;SDS011;8603;46.944;7.412;2022-10-17T13:54:47;2.90;;;2.13;;
16973;SDS011;8603;46.944;7.412;2022-10-17T13:57:26;3.05;;;2.75;;
16973;SDS011;8603;46.944;7.412;2022-10-17T14:00:31;5.25;;;2.22;;
16973;SDS011;8603;46.944;7.412;2022-10-17T14:02:57;2.72;;;2.53;;
16973;SDS011;8603;46.944;7.412;2022-10-17T14:08:36;2.67;;;2.05;;
16973;SDS011;8603;46.944;7.412;2022-10-17T14:11:12;2.50;;;2.20;;
16973;SDS011;8603;46.944;7.412;2022-10-17T14:13:47;3.67;;;2.17;;
16973;SDS011;8603;46.944;7.412;2022-10-17T14:16:16;3.00;;;2.40;;
16973;SDS011;8603;46.944;7.412;2022-10-17T14:18:44;2.60;;;2.40;;
16973;SDS011;8603;46.944;7.412;2022-10-17T14:21:17;2.60;;;2.40;;
16973;SDS011;8603;46.944;7.412;2022-10-17T14:23:52;2.42;;;2.22;;
16973;SDS011;8603;46.944;7.412;2022-10-17T14:26:50;4.25;;;2.20;;
16973;SDS011;8603;46.944;7.412;2022-10-17T14:29:22;4.57;;;2.40;;
16973;SDS011;8603;46.944;7.412;2022-10-17T14:31:56;2.88;;;2.10;;
16973;SDS011;8603;46.944;7.412;2022-10-17T14:34:26;3.35;;;2.25;;
16973;SDS011;8603;46.944;7.412;2022-10-17T14:36:57;6.35;;;2.63;;
16973;SDS011;8603;46.944;7.412;2022-10-17T14:39:24;2.03;;;1.92;;
16973;SDS011;8603;46.944;7.412;2022-10-17T14:41:51;4.40;;;2.03;;
16973;SDS011;8603;46.944;7.412;2022-10-17T14:44:30;3.67;;;2.30;;
16973;SDS011;8603;46.944;7.412;2022-10-17T14:46:59;4.65;;;2.45;;
16973;SDS011;8603;46.944;7.412;2022-10-17T14:49:32;2.92;;;2.40;;
16973;SDS011;8603;46.944;7.412;2022-10-17T14:52:08;3.67;;;2.30;;
16973;SDS011;8603;46.944;7.412;2022-10-17T14:54:34;3.95;;;2.30;;
16973;SDS011;8603;46.944;7.412;2022-10-17T14:57:06;5.65;;;2.55;;
16973;SDS011;8603;46.944;7.412;2022-10-17T14:59:38;2.33;;;2.13;;
16973;SDS011;8603;46.944;7.412;2022-10-17T15:02:04;4.78;;;2.40;;
16973;SDS011;8603;46.944;7.412;2022-10-17T15:04:29;3.75;;;2.28;;
16973;SDS011;8603;46.944;7.412;2022-10-17T15:06:55;3.90;;;2.20;;
16973;SDS011;8603;46.944;7.412;2022-10-17T15:09:21;5.13;;;2.78;;
16973;SDS011;8603;46.944;7.412;2022-10-17T15:11:47;5.03;;;2.22;;
16973;SDS011;8603;46.944;7.412;2022-10-17T15:14:13;3.45;;;2.47;;
16973;SDS011;8603;46.944;7.412;2022-10-17T15:16:38;5.15;;;2.58;;
16973;SDS011;8603;46.944;7.412;2022-10-17T15:19:04;4.43;;;2.20;;
16973;SDS011;8603;46.944;7.412;2022-10-17T15:21:30;2.70;;;2.42;;
16973;SDS011;8603;46.944;7.412;2022-10-17T15:23:55;3.08;;;2.35;;
16973;SDS011;8603;46.944;7.412;2022-10-17T15:26:24;4.25;;;2.50;;
16973;SDS011;8603;46.944;7.412;2022-10-17T15:28:53;4.30;;;2.60;;
16973;SDS011;8603;46.944;7.412;2022-10-17T15:31:20;3.42;;;2.42;;
16973;SDS011;8603;46.944;7.412;2022-10-17T15:33:47;3.80;;;2.25;;
16973;SDS011;8603;46.944;7.412;2022-10-17T15:36:20;4.55;;;2.60;;
16973;SDS011;8603;46.944;7.412;2022-10-17T15:38:55;4.10;;;2.65;;
16973;SDS011;8603;46.944;7.412;2022-10-17T15:41:23;2.80;;;2.40;;
16973;SDS011;8603;46.944;7.412;2022-10-17T15:43:51;3.72;;;2.22;;
16973;SDS011;8603;46.944;7.412;2022-10-17T15:46:18;3.17;;;2.33;;
16973;SDS011;8603;46.944;7.412;2022-10-17T15:48:46;2.38;;;2.17;;
16973;SDS011;8603;46.944;7.412;2022-10-17T15:51:12;4.97;;;2.50;;
16973;SDS011;8603;46.944;7.412;2022-10-17T15:53:38;3.28;;;2.30;;
16973;SDS011;8603;46.944;7.412;2022-10-17T15:56:04;2.50;;;2.30;;
16973;SDS011;8603;46.944;7.412;2022-10-17T15:58:33;4.47;;;2.42;;
16973;SDS011;8603;46.944;7.412;2022-10-17T16:01:01;4.20;;;2.67;;
16973;SDS011;8603;46.944;7.412;2022-10-17T16:03:27;2.85;;;2.25;;
16973;SDS011;8603;46.944;7.412;2022-10-17T16:05:54;3.45;;;2.10;;
16973;SDS011;8603;46.944;7.412;2022-10-17T16:08:20;3.63;;;2.53;;
16973;SDS011;8603;46.944;7.412;2022-10-17T16:10:45;2.80;;;2.47;;
16973;SDS011;8603;46.944;7.412;2022-10-17T16:13:17;2.92;;;2.63;;
16973;SDS011;8603;46.944;7.412;2022-10-17T16:15:46;2.78;;;2.40;;
16973;SDS011;8603;46.944;7.412;2022-10-17T16:18:11;3.45;;;2.60;;
16973;SDS011;8603;46.944;7.412;2022-10-17T16:20:37;4.43;;;2.70;;
16973;SDS011;8603;46.944;7.412;2022-10-17T16:23:03;2.50;;;2.15;;
16973;SDS011;8603;46.944;7.412;2022-10-17T16:25:29;2.75;;;2.38;;
16973;SDS011;8603;46.944;7.412;2022-10-17T16:27:57;3.30;;;2.65;;
16973;SDS011;8603;46.944;7.412;2022-10-17T16:30:24;4.22;;;2.80;;
16973;SDS011;8603;46.944;7.412;2022-10-17T16:32:52;2.72;;;2.50;;
16973;SDS011;8603;46.944;7.412;2022-10-17T16:35:26;2.75;;;2.55;;
16973;SDS011;8603;46.944;7.412;2022-10-17T16:37:53;5.40;;;3.20;;
16973;SDS011;8603;46.944;7.412;2022-10-17T16:40:19;5.40;;;3.33;;
16973;SDS011;8603;46.944;7.412;2022-10-17T16:42:44;3.65;;;2.80;;
16973;SDS011;8603;46.944;7.412;2022-10-17T16:45:20;4.28;;;2.85;;
16973;SDS011;8603;46.944;7.412;2022-10-17T16:47:47;4.90;;;3.20;;
16973;SDS011;8603;46.944;7.412;2022-10-17T16:50:14;3.35;;;2.70;;
16973;SDS011;8603;46.944;7.412;2022-10-17T16:52:40;4.20;;;2.97;;
16973;SDS011;8603;46.944;7.412;2022-10-17T16:55:06;5.10;;;3.03;;
16973;SDS011;8603;46.944;7.412;2022-10-17T16:57:32;5.47;;;3.42;;
16973;SDS011;8603;46.944;7.412;2022-10-17T16:59:58;4.60;;;3.47;;
16973;SDS011;8603;46.944;7.412;2022-10-17T17:02:23;5.82;;;3.70;;
16973;SDS011;8603;46.944;7.412;2022-10-17T17:04:49;6.53;;;3.30;;
16973;SDS011;8603;46.944;7.412;2022-10-17T17:07:15;3.47;;;2.97;;
16973;SDS011;8603;46.944;7.412;2022-10-17T17:09:42;3.30;;;3.00;;
16973;SDS011;8603;46.944;7.412;2022-10-17T17:12:08;3.60;;;3.30;;
16973;SDS011;8603;46.944;7.412;2022-10-17T17:14:34;3.60;;;3.30;;
16973;SDS011;8603;46.944;7.412;2022-10-17T17:16:59;3.90;;;3.50;;
16973;SDS011;8603;46.944;7.412;2022-10-17T17:19:25;5.63;;;4.40;;
16973;SDS011;8603;46.944;7.412;2022-10-17T17:21:51;4.32;;;3.92;;
16973;SDS011;8603;46.944;7.412;2022-10-17T17:24:17;3.65;;;3.28;;
16973;SDS011;8603;46.944;7.412;2022-10-17T17:26:45;4.25;;;3.30;;
16973;SDS011;8603;46.944;7.412;2022-10-17T17:29:16;5.35;;;3.28;;
16973;SDS011;8603;46.944;7.412;2022-10-17T17:31:43;5.95;;;3.47;;
16973;SDS011;8603;46.944;7.412;2022-10-17T17:34:09;4.85;;;3.95;;
16973;SDS011;8603;46.944;7.412;2022-10-17T17:36:35;9.63;;;6.10;;
16973;SDS011;8603;46.944;7.412;2022-10-17T17:39:02;11.07;;;6.85;;
16973;SDS011;8603;46.944;7.412;2022-10-17T17:41:30;9.05;;;7.35;;
16973;SDS011;8603;46.944;7.412;2022-10-17T17:43:56;8.55;;;7.10;;
16973;SDS011;8603;46.944;7.412;2022-10-17T17:46:23;9.05;;;6.95;;
16973;SDS011;8603;46.944;7.412;2022-10-17T17:48:49;8.93;;;6.07;;
16973;SDS011;8603;46.944;7.412;2022-10-17T17:51:17;6.78;;;5.35;;
16973;SDS011;8603;46.944;7.412;2022-10-17T17:53:44;6.38;;;5.22;;
16973;SDS011;8603;46.944;7.412;2022-10-17T17:56:11;9.00;;;6.28;;
16973;SDS011;8603;46.944;7.412;2022-10-17T17:58:38;14.65;;;7.97;;
16973;SDS011;8603;46.944;7.412;2022-10-17T18:01:11;8.65;;;6.75;;
16973;SDS011;8603;46.944;7.412;2022-10-17T18:03:39;7.43;;;5.75;;
16973;SDS011;8603;46.944;7.412;2022-10-17T18:06:05;6.97;;;5.95;;
16973;SDS011;8603;46.944;7.412;2022-10-17T18:08:33;9.60;;;5.47;;
16973;SDS011;8603;46.944;7.412;2022-10-17T18:11:35;5.97;;;5.38;;
16973;SDS011;8603;46.944;7.412;2022-10-17T18:14:02;7.88;;;5.85;;
16973;SDS011;8603;46.944;7.412;2022-10-17T18:16:30;9.65;;;5.70;;
16973;SDS011;8603;46.944;7.412;2022-10-17T18:18:58;21.38;;;10.93;;
16973;SDS011;8603;46.944;7.412;2022-10-17T18:21:25;33.57;;;13.63;;
16973;SDS011;8603;46.944;7.412;2022-10-17T18:23:51;37.72;;;17.60;;
16973;SDS011;8603;46.944;7.412;2022-10-17T18:26:17;23.20;;;12.27;;
16973;SDS011;8603;46.944;7.412;2022-10-17T18:28:42;15.27;;;8.90;;
16973;SDS011;8603;46.944;7.412;2022-10-17T18:31:11;11.23;;;7.40;;
16973;SDS011;8603;46.944;7.412;2022-10-17T18:33:37;9.03;;;6.03;;
16973;SDS011;8603;46.944;7.412;2022-10-17T18:36:07;9.43;;;6.37;;
16973;SDS011;8603;46.944;7.412;2022-10-17T18:38:34;6.15;;;5.32;;
16973;SDS011;8603;46.944;7.412;2022-10-17T18:41:07;9.10;;;6.07;;
16973;SDS011;8603;46.944;7.412;2022-10-17T18:43:35;6.47;;;5.40;;
16973;SDS011;8603;46.944;7.412;2022-10-17T18:46:06;6.40;;;5.70;;
16973;SDS011;8603;46.944;7.412;2022-10-17T18:48:33;8.33;;;5.57;;
16973;SDS011;8603;46.944;7.412;2022-10-17T18:51:00;7.87;;;6.00;;
16973;SDS011;8603;46.944;7.412;2022-10-17T18:53:28;8.27;;;5.83;;
16973;SDS011;8603;46.944;7.412;2022-10-17T18:55:54;7.13;;;5.73;;
16973;SDS011;8603;46.944;7.412;2022-10-17T18:58:20;6.90;;;4.90;;
16973;SDS011;8603;46.944;7.412;2022-10-17T19:00:47;7.60;;;5.53;;
16973;SDS011;8603;46.944;7.412;2022-10-17T19:03:14;6.30;;;5.43;;
16973;SDS011;8603;46.944;7.412;2022-10-17T19:05:40;9.10;;;5.30;;
16973;SDS011;8603;46.944;7.412;2022-10-17T19:08:09;7.90;;;5.13;;
16973;SDS011;8603;46.944;7.412;2022-10-17T19:10:37;9.20;;;5.03;;
16973;SDS011;8603;46.944;7.412;2022-10-17T19:13:03;9.77;;;5.67;;
16973;SDS011;8603;46.944;7.412;2022-10-17T19:15:28;5.90;;;5.00;;
16973;SDS011;8603;46.944;7.412;2022-10-17T19:17:54;5.17;;;4.67;;
16973;SDS011;8603;46.944;7.412;2022-10-17T19:20:19;8.17;;;5.13;;
16973;SDS011;8603;46.944;7.412;2022-10-17T19:22:45;5.43;;;4.87;;
16973;SDS011;8603;46.944;7.412;2022-10-17T19:25:11;5.97;;;5.20;;
16973;SDS011;8603;46.944;7.412;2022-10-17T19:27:37;9.13;;;6.10;;
16973;SDS011;8603;46.944;7.412;2022-10-17T19:30:02;9.87;;;7.23;;
16973;SDS011;8603;46.944;7.412;2022-10-17T19:32:28;14.90;;;10.73;;
16973;SDS011;8603;46.944;7.412;2022-10-17T19:34:54;9.47;;;7.10;;
16973;SDS011;8603;46.944;7.412;2022-10-17T19:37:30;11.03;;;8.33;;
16973;SDS011;8603;46.944;7.412;2022-10-17T19:39:56;13.90;;;9.47;;
16973;SDS011;8603;46.944;7.412;2022-10-17T19:42:22;9.70;;;7.43;;
16973;SDS011;8603;46.944;7.412;2022-10-17T19:44:47;9.43;;;7.60;;
16973;SDS011;8603;46.944;7.412;2022-10-17T19:47:14;7.67;;;6.83;;
16973;SDS011;8603;46.944;7.412;2022-10-17T19:49:39;8.30;;;6.70;;
16973;SDS011;8603;46.944;7.412;2022-10-17T19:52:05;9.70;;;7.57;;
16973;SDS011;8603;46.944;7.412;2022-10-17T19:54:30;9.23;;;7.07;;
16973;SDS011;8603;46.944;7.412;2022-10-17T19:56:56;8.53;;;6.73;;
16973;SDS011;8603;46.944;7.412;2022-10-17T19:59:21;9.83;;;6.60;;
16973;SDS011;8603;46.944;7.412;2022-10-17T20:01:47;7.67;;;6.13;;
16973;SDS011;8603;46.944;7.412;2022-10-17T20:04:13;10.60;;;7.47;;
16973;SDS011;8603;46.944;7.412;2022-10-17T20:06:39;11.40;;;7.97;;
16973;SDS011;8603;46.944;7.412;2022-10-17T20:09:05;12.27;;;8.83;;
16973;SDS011;8603;46.944;7.412;2022-10-17T20:11:31;16.83;;;12.97;;
16973;SDS011;8603;46.944;7.412;2022-10-17T20:13:58;14.33;;;11.40;;
16973;SDS011;8603;46.944;7.412;2022-10-17T20:16:26;8.87;;;7.37;;
16973;SDS011;8603;46.944;7.412;2022-10-17T20:18:54;9.73;;;8.10;;
16973;SDS011;8603;46.944;7.412;2022-10-17T20:21:25;10.63;;;7.70;;
16973;SDS011;8603;46.944;7.412;2022-10-17T20:23:55;9.13;;;7.63;;
16973;SDS011;8603;46.944;7.412;2022-10-17T20:26:23;8.90;;;7.23;;
16973;SDS011;8603;46.944;7.412;2022-10-17T20:28:50;9.50;;;7.57;;
16973;SDS011;8603;46.944;7.412;2022-10-17T20:31:15;10.27;;;7.70;;
16973;SDS011;8603;46.944;7.412;2022-10-17T20:33:41;9.53;;;7.23;;
16973;SDS011;8603;46.944;7.412;2022-10-17T20:36:07;9.27;;;7.37;;
16973;SDS011;8603;46.944;7.412;2022-10-17T20:38:34;9.17;;;6.77;;
16973;SDS011;8603;46.944;7.412;2022-10-17T20:41:00;9.97;;;7.30;;
16973;SDS011;8603;46.944;7.412;2022-10-17T20:43:27;10.60;;;7.97;;
16973;SDS011;8603;46.944;7.412;2022-10-17T20:45:53;10.93;;;7.00;;
16973;SDS011;8603;46.944;7.412;2022-10-17T20:48:19;9.20;;;6.93;;